Buoy 46535

sailwx.info

Track history (hours):
 
Tides and Currents Weather Stations Pressure Air Temp Water Temp Dewpoint Dewpoint Depression Visibility Wind Speed Wind Dir Waves Ship Positions

Drifting buoy 46535

Last reported at 2015-Dec-09 15:20 UTC. Time now 2016-Dec-07 20:21 UTC.
Position N 52°44' W 162°46'.
Warning: this ship's position is months out of date.

Barometer 975.4 mb
Water temperature 6.9 ° C

Date/timePositionNaut miles runAvg speedWind from/ knotsBaromVisibWave heightAir tempDewpointWater temp
2015-Dec-09 15:20N 52°44' W 162°46'0 0.0 975.4 6.9
2015-Dec-09 14:20N 52°44' W 162°46'0 0.0 975.2 6.9
2015-Dec-09 13:20N 52°44' W 162°46'0 0.0 975.0 6.8
2015-Dec-09 06:20N 52°44' W 162°46'0 0.0 971.5 6.9
2015-Dec-09 05:20N 52°44' W 162°46'0 0.0 971.1 7.0
2015-Dec-09 04:20N 52°44' W 162°46'0 0.0 970.5 7.1
2015-Dec-09 03:20N 52°44' W 162°46'0 0.0 969.8 7.0
2015-Dec-09 02:20N 52°44' W 162°46'0 0.0 969.3 7.1
2015-Dec-09 01:20N 52°44' W 162°46'0 0.0 968.9 7.2
2015-Dec-08 20:20N 52°44' W 162°46'0 0.0 968.7 6.9
2015-Dec-08 17:20N 52°44' W 162°46'0 0.0 968.2 7.0
2015-Dec-08 16:20N 52°44' W 162°46'0 0.0 968.3 7.0
2015-Dec-08 15:20N 52°44' W 162°46'0 0.0 968.6 7.0
2015-Dec-08 11:20N 52°44' W 162°46'0 0.0 969.4 7.2
2015-Dec-08 08:50N 52°44' W 162°46'0 0.0 969.2 7.2
2015-Dec-08 07:50N 52°44' W 162°46'0 0.0 968.9 7.2
2015-Dec-08 06:50N 52°44' W 162°46'0 0.0 968.7 7.3
2015-Dec-08 04:50N 52°44' W 162°46'0 0.0 968.2 7.3
2015-Dec-08 03:50N 52°44' W 162°46'0 0.0 967.8 7.3
2015-Dec-08 03:10N 52°44' W 162°46'0 0.0 967.3 7.3
2015-Dec-08 02:10N 52°44' W 162°46'0 0.0 967.0 7.3
2015-Dec-08 01:00N 52°44' W 162°46'0 0.0 966.9 7.3
2015-Dec-07 23:10N 52°44' W 162°46'0 0.0 967.4 7.2
2015-Dec-07 22:10N 52°44' W 162°46'0 0.0 967.3 7.2
2015-Dec-07 19:00N 52°44' W 162°46'0 0.0 966.4 7.2
2015-Dec-07 18:10N 52°44' W 162°46'0 0.0 966.4 7.3
2015-Dec-07 17:10N 52°44' W 162°46'2 1.9 966.2 7.3
2015-Dec-07 16:10N 52°43' W 162°49'   966.4 7.3
Track history (hours):
 
Tides and Currents Weather Stations Pressure Air Temp Water Temp Dewpoint Dewpoint Depression Visibility Wind Speed Wind Dir Waves Ship Positions

Drifting buoy 46535

Last reported at 2015-Dec-09 15:20 UTC. Time now 2016-Dec-07 20:21 UTC.
Position N 52°44' W 162°46'.
Warning: this ship's position is months out of date.

Barometer 975.4 mb
Water temperature 6.9 ° C

Date/timePositionNaut miles runAvg speedWind from/ knotsBaromVisibWave heightAir tempDewpointWater temp
2015-Dec-09 15:20N 52°44' W 162°46'0 0.0 975.4 6.9
2015-Dec-09 14:20N 52°44' W 162°46'0 0.0 975.2 6.9
2015-Dec-09 13:20N 52°44' W 162°46'0 0.0 975.0 6.8
2015-Dec-09 06:20N 52°44' W 162°46'0 0.0 971.5 6.9
2015-Dec-09 05:20N 52°44' W 162°46'0 0.0 971.1 7.0
2015-Dec-09 04:20N 52°44' W 162°46'0 0.0 970.5 7.1
2015-Dec-09 03:20N 52°44' W 162°46'0 0.0 969.8 7.0
2015-Dec-09 02:20N 52°44' W 162°46'0 0.0 969.3 7.1
2015-Dec-09 01:20N 52°44' W 162°46'0 0.0 968.9 7.2
2015-Dec-08 20:20N 52°44' W 162°46'0 0.0 968.7 6.9
2015-Dec-08 17:20N 52°44' W 162°46'0 0.0 968.2 7.0
2015-Dec-08 16:20N 52°44' W 162°46'0 0.0 968.3 7.0
2015-Dec-08 15:20N 52°44' W 162°46'0 0.0 968.6 7.0
2015-Dec-08 11:20N 52°44' W 162°46'0 0.0 969.4 7.2
2015-Dec-08 08:50N 52°44' W 162°46'0 0.0 969.2 7.2
2015-Dec-08 07:50N 52°44' W 162°46'0 0.0 968.9 7.2
2015-Dec-08 06:50N 52°44' W 162°46'0 0.0 968.7 7.3
2015-Dec-08 04:50N 52°44' W 162°46'0 0.0 968.2 7.3
2015-Dec-08 03:50N 52°44' W 162°46'0 0.0 967.8 7.3
2015-Dec-08 03:10N 52°44' W 162°46'0 0.0 967.3 7.3
2015-Dec-08 02:10N 52°44' W 162°46'0 0.0 967.0 7.3
2015-Dec-08 01:00N 52°44' W 162°46'0 0.0 966.9 7.3
2015-Dec-07 23:10N 52°44' W 162°46'0 0.0 967.4 7.2
2015-Dec-07 22:10N 52°44' W 162°46'0 0.0 967.3 7.2
2015-Dec-07 19:00N 52°44' W 162°46'0 0.0 966.4 7.2
2015-Dec-07 18:10N 52°44' W 162°46'0 0.0 966.4 7.3
2015-Dec-07 17:10N 52°44' W 162°46'2 1.9 966.2 7.3
2015-Dec-07 16:10N 52°43' W 162°49'   966.4 7.3

Dump ship's entire track history